createdAt,value
2019-02-06T00:00:10.743Z,4.10
2019-02-06T00:01:10.855Z,2.70
2019-02-06T00:02:10.716Z,3.10
2019-02-06T00:03:10.705Z,3.60
2019-02-06T00:04:10.694Z,3.40
2019-02-06T00:05:13.982Z,3.10
2019-02-06T00:06:11.718Z,3.90
2019-02-06T00:07:10.691Z,2.90
2019-02-06T00:08:10.649Z,3.50
2019-02-06T00:09:10.661Z,3.70
2019-02-06T00:10:10.643Z,3.00
2019-02-06T00:11:10.617Z,3.90
2019-02-06T00:12:10.642Z,3.70
2019-02-06T00:13:10.595Z,3.80
2019-02-06T00:14:10.585Z,3.30
2019-02-06T00:15:10.574Z,3.30
2019-02-06T00:16:10.575Z,3.00
2019-02-06T00:17:10.560Z,2.40
2019-02-06T00:18:10.572Z,2.80
2019-02-06T00:19:10.529Z,3.00
2019-02-06T00:20:10.519Z,3.90
2019-02-06T00:21:10.510Z,2.90
2019-02-06T00:22:10.498Z,3.50
2019-02-06T00:23:10.488Z,2.60
2019-02-06T00:24:10.508Z,3.50
2019-02-06T00:25:10.465Z,2.80
2019-02-06T00:26:10.454Z,3.30
2019-02-06T00:27:10.446Z,3.10
2019-02-06T00:28:10.432Z,3.30
2019-02-06T00:29:10.425Z,2.90
2019-02-06T00:30:10.449Z,4.20
2019-02-06T00:31:10.406Z,3.90
2019-02-06T00:32:10.389Z,3.30
2019-02-06T00:33:10.377Z,2.40
2019-02-06T00:34:10.464Z,3.90
2019-02-06T00:35:10.778Z,3.00
2019-02-06T00:36:10.378Z,3.30
2019-02-06T00:37:10.336Z,3.00
2019-02-06T00:38:10.323Z,3.20
2019-02-06T00:39:10.314Z,2.80
2019-02-06T00:40:10.302Z,3.30
2019-02-06T00:41:10.304Z,3.40
2019-02-06T00:42:10.309Z,3.60
2019-02-06T00:43:10.269Z,3.60
2019-02-06T00:44:10.257Z,3.20
2019-02-06T00:45:10.247Z,4.10
2019-02-06T00:46:10.236Z,3.70
2019-02-06T00:47:10.224Z,3.10
2019-02-06T00:48:10.246Z,3.20
2019-02-06T00:49:10.203Z,3.80
2019-02-06T00:50:10.194Z,3.00
2019-02-06T00:51:10.182Z,4.00
2019-02-06T00:52:10.172Z,4.10
2019-02-06T00:53:10.164Z,3.40
2019-02-06T00:54:10.167Z,3.20
2019-02-06T00:55:10.137Z,3.50
2019-02-06T00:56:10.127Z,3.30
2019-02-06T00:57:10.116Z,3.10
2019-02-06T00:58:10.118Z,3.50
2019-02-06T00:59:10.134Z,2.90
2019-02-06T01:00:10.091Z,2.40
2019-02-06T01:01:10.080Z,2.80
2019-02-06T01:02:10.062Z,3.30
2019-02-06T01:03:10.049Z,2.70
2019-02-06T01:04:10.041Z,2.80
2019-02-06T01:05:10.045Z,3.00
2019-02-06T01:06:10.025Z,3.00
2019-02-06T01:07:10.014Z,3.40
2019-02-06T01:08:09.997Z,3.30
2019-02-06T01:09:09.988Z,3.50
2019-02-06T01:10:10.013Z,3.40
2019-02-06T01:11:09.965Z,3.00
2019-02-06T01:12:09.961Z,2.90
2019-02-06T01:13:09.946Z,3.40
2019-02-06T01:14:09.934Z,3.60
2019-02-06T01:15:09.920Z,3.10
2019-02-06T01:16:09.921Z,3.70
2019-02-06T01:17:09.902Z,3.20
2019-02-06T01:18:09.890Z,3.60
2019-02-06T01:19:09.881Z,3.00
2019-02-06T01:20:09.886Z,3.20
2019-02-06T01:21:09.853Z,2.80
2019-02-06T01:22:09.865Z,3.10
2019-02-06T01:23:09.832Z,3.60
2019-02-06T01:24:09.821Z,2.50
2019-02-06T01:25:09.817Z,3.10
2019-02-06T01:26:09.797Z,2.90
2019-02-06T01:27:09.785Z,2.90
2019-02-06T01:28:09.790Z,3.80
2019-02-06T01:29:09.764Z,3.20
2019-02-06T01:30:09.752Z,2.40
2019-02-06T01:31:09.751Z,2.80
2019-02-06T01:32:09.736Z,3.10
2019-02-06T01:33:09.744Z,4.00
2019-02-06T01:34:09.709Z,3.10
2019-02-06T01:35:09.698Z,2.80
2019-02-06T01:36:09.688Z,2.00
2019-02-06T01:37:09.675Z,2.40
2019-02-06T01:38:09.672Z,2.80
2019-02-06T01:39:09.668Z,2.90
2019-02-06T01:40:09.679Z,2.70
2019-02-06T01:41:09.633Z,2.40
2019-02-06T01:42:09.622Z,3.50
2019-02-06T01:43:09.610Z,2.60
2019-02-06T01:44:09.603Z,2.30
2019-02-06T01:45:09.589Z,2.20
2019-02-06T01:46:09.590Z,2.20
2019-02-06T01:47:09.605Z,2.60
2019-02-06T01:48:09.554Z,3.30
2019-02-06T01:49:09.553Z,2.20
2019-02-06T01:50:09.540Z,2.70
2019-02-06T01:51:09.526Z,2.70
2019-02-06T01:52:09.514Z,2.60
2019-02-06T01:53:09.525Z,2.80
2019-02-06T01:54:09.492Z,2.90
2019-02-06T01:55:09.481Z,2.50
2019-02-06T01:56:09.470Z,2.60
2019-02-06T01:57:09.460Z,3.30
2019-02-06T01:58:09.448Z,2.60
2019-02-06T01:59:09.447Z,3.10
2019-02-06T02:00:09.425Z,2.00
2019-02-06T02:01:09.414Z,2.40
2019-02-06T02:02:09.408Z,2.60
2019-02-06T02:03:09.415Z,2.50
2019-02-06T02:04:09.381Z,2.90
2019-02-06T02:05:09.372Z,2.50
2019-02-06T02:06:09.361Z,2.90
2019-02-06T02:07:09.350Z,2.40
2019-02-06T02:08:09.351Z,2.50
2019-02-06T02:09:09.351Z,2.90
2019-02-06T02:10:09.317Z,2.40
2019-02-06T02:11:09.305Z,2.60
2019-02-06T02:12:09.294Z,2.30
2019-02-06T02:13:09.281Z,3.20
2019-02-06T02:14:09.285Z,2.30
2019-02-06T02:15:09.276Z,2.60
2019-02-06T02:16:09.285Z,2.50
2019-02-06T02:17:09.240Z,2.20
2019-02-06T02:18:09.230Z,3.20
2019-02-06T02:19:09.222Z,2.20
2019-02-06T02:20:09.209Z,2.20
2019-02-06T02:21:09.213Z,2.40
2019-02-06T02:22:09.199Z,3.00
2019-02-06T02:23:09.176Z,2.30
2019-02-06T02:24:09.164Z,2.50
2019-02-06T02:25:09.153Z,3.10
2019-02-06T02:26:09.151Z,2.70
2019-02-06T02:27:09.163Z,2.40
2019-02-06T02:28:09.121Z,3.30
2019-02-06T02:29:09.109Z,2.80
2019-02-06T02:30:09.211Z,2.80
2019-02-06T02:31:09.088Z,2.50
2019-02-06T02:32:09.098Z,2.30
2019-02-06T02:33:09.080Z,2.60
2019-02-06T02:34:09.055Z,3.20
2019-02-06T02:35:09.042Z,2.80
2019-02-06T02:36:15.699Z,2.50
2019-02-06T02:37:10.033Z,1.90
2019-02-06T02:38:09.032Z,2.90
2019-02-06T02:39:09.009Z,3.20
2019-02-06T02:40:08.998Z,2.40
2019-02-06T02:41:08.978Z,3.50
2019-02-06T02:42:08.968Z,2.90
2019-02-06T02:43:08.994Z,3.30
2019-02-06T02:44:08.948Z,2.40
2019-02-06T02:45:08.941Z,2.50
2019-02-06T02:46:08.928Z,3.00
2019-02-06T02:47:08.913Z,3.10
2019-02-06T02:48:08.907Z,2.80
2019-02-06T02:49:08.905Z,2.20
2019-02-06T02:50:08.884Z,2.70
2019-02-06T02:51:08.880Z,3.20
2019-02-06T02:52:08.860Z,2.70
2019-02-06T02:53:08.848Z,2.80
2019-02-06T02:54:08.847Z,3.20
2019-02-06T02:55:08.825Z,2.60
2019-02-06T02:56:08.815Z,2.70
2019-02-06T02:57:08.812Z,3.00
2019-02-06T02:58:08.955Z,3.20
2019-02-06T02:59:08.782Z,2.90
2019-02-06T03:00:08.772Z,2.40
2019-02-06T03:01:08.761Z,1.80
2019-02-06T03:02:08.749Z,2.50
2019-02-06T03:03:08.742Z,2.50
2019-02-06T03:04:08.771Z,2.00
2019-02-06T03:05:08.716Z,3.20
2019-02-06T03:06:08.707Z,2.50
2019-02-06T03:07:08.706Z,3.20
2019-02-06T03:08:08.683Z,2.50
2019-02-06T03:09:08.681Z,2.70
2019-02-06T03:10:08.676Z,2.70
2019-02-06T03:11:08.651Z,2.80
2019-02-06T03:12:08.639Z,2.40
2019-02-06T03:13:08.638Z,3.10
2019-02-06T03:14:08.618Z,3.20
2019-02-06T03:15:08.631Z,2.70
2019-02-06T03:16:08.634Z,2.30
2019-02-06T03:17:08.585Z,1.90
2019-02-06T03:18:08.575Z,2.90
2019-02-06T03:19:08.565Z,2.80
2019-02-06T03:20:08.552Z,2.20
2019-02-06T03:21:08.547Z,3.20
2019-02-06T03:22:08.562Z,2.30
2019-02-06T03:23:08.526Z,2.50
2019-02-06T03:24:08.510Z,2.10
2019-02-06T03:25:08.504Z,2.80
2019-02-06T03:26:08.489Z,3.00
2019-02-06T03:27:08.488Z,2.30
2019-02-06T03:28:08.478Z,2.00
2019-02-06T03:29:08.456Z,3.00
2019-02-06T03:30:08.456Z,2.90
2019-02-06T03:31:08.434Z,2.90
2019-02-06T03:32:08.424Z,2.50
2019-02-06T03:33:08.431Z,2.30
2019-02-06T03:34:08.403Z,2.60
2019-02-06T03:35:08.392Z,2.30
2019-02-06T03:36:08.380Z,2.70
2019-02-06T03:37:08.371Z,2.50
2019-02-06T03:38:08.368Z,3.00
2019-02-06T03:39:08.355Z,2.80
2019-02-06T03:40:08.347Z,3.10
2019-02-06T03:41:08.340Z,3.00
2019-02-06T03:42:08.314Z,2.00
2019-02-06T03:43:08.323Z,2.70
2019-02-06T03:44:08.292Z,3.20
2019-02-06T03:45:08.300Z,3.50
2019-02-06T03:46:08.277Z,2.60
2019-02-06T03:47:08.259Z,2.80
2019-02-06T03:48:08.270Z,2.30
2019-02-06T03:49:08.237Z,2.90
2019-02-06T03:50:08.233Z,2.80
2019-02-06T03:51:08.219Z,3.20
2019-02-06T03:52:08.207Z,2.40
2019-02-06T03:53:08.194Z,3.30
2019-02-06T03:54:08.198Z,2.30
2019-02-06T03:55:08.184Z,2.60
2019-02-06T03:56:08.162Z,3.60
2019-02-06T03:57:08.157Z,2.50
2019-02-06T03:58:08.153Z,3.10
2019-02-06T03:59:08.187Z,3.10
2019-02-06T04:00:08.121Z,2.70
2019-02-06T04:01:11.250Z,3.00
2019-02-06T04:02:08.103Z,2.20
2019-02-06T04:03:08.093Z,2.40
2019-02-06T04:04:08.075Z,2.90
2019-02-06T04:05:08.076Z,3.10
2019-02-06T04:06:08.066Z,2.80
2019-02-06T04:07:08.043Z,2.70
2019-02-06T04:08:08.031Z,3.10
2019-02-06T04:09:08.024Z,2.50
2019-02-06T04:10:08.025Z,2.10
2019-02-06T04:11:08.004Z,3.10
2019-02-06T04:12:07.989Z,2.70
2019-02-06T04:13:07.978Z,2.30
2019-02-06T04:14:07.964Z,2.70
2019-02-06T04:15:07.974Z,2.80
2019-02-06T04:16:07.945Z,2.80
2019-02-06T04:17:07.933Z,2.70
2019-02-06T04:18:07.935Z,2.80
2019-02-06T04:19:07.917Z,2.70
2019-02-06T04:20:07.909Z,2.70
2019-02-06T04:21:07.893Z,2.40
2019-02-06T04:22:07.880Z,3.00
2019-02-06T04:23:07.886Z,2.70
2019-02-06T04:24:07.856Z,2.80
2019-02-06T04:25:07.847Z,3.10
2019-02-06T04:26:07.834Z,2.40
2019-02-06T04:27:07.828Z,2.50
2019-02-06T04:28:07.823Z,2.90
2019-02-06T04:29:07.816Z,2.70
2019-02-06T04:30:07.793Z,3.10
2019-02-06T04:31:07.778Z,3.50
2019-02-06T04:32:07.769Z,2.10
2019-02-06T04:33:07.760Z,1.90
2019-02-06T04:34:07.785Z,2.50
2019-02-06T04:35:07.738Z,3.40
2019-02-06T04:36:07.730Z,2.10
2019-02-06T04:37:07.714Z,2.40
2019-02-06T04:38:07.704Z,3.00
2019-02-06T04:39:07.693Z,2.80
2019-02-06T04:40:07.726Z,2.40
2019-02-06T04:41:07.672Z,2.30
2019-02-06T04:42:07.663Z,2.80
2019-02-06T04:43:07.649Z,2.30
2019-02-06T04:44:07.642Z,2.70
2019-02-06T04:45:07.628Z,2.70
2019-02-06T04:46:07.656Z,2.00
2019-02-06T04:47:07.608Z,3.20
2019-02-06T04:48:07.599Z,2.30
2019-02-06T04:49:07.585Z,2.50
2019-02-06T04:50:07.578Z,2.30
2019-02-06T04:51:07.565Z,3.40
2019-02-06T04:52:07.571Z,3.10
2019-02-06T04:53:07.544Z,2.50
2019-02-06T04:54:07.533Z,2.30
2019-02-06T04:55:07.521Z,3.70
2019-02-06T04:56:07.521Z,2.50
2019-02-06T04:57:09.550Z,2.80
2019-02-06T04:58:07.489Z,2.20
2019-02-06T04:59:07.490Z,3.40
2019-02-06T05:00:07.463Z,2.30
2019-02-06T05:01:07.464Z,3.20
2019-02-06T05:02:07.463Z,3.10
2019-02-06T05:03:07.445Z,2.80
2019-02-06T05:04:07.421Z,2.90
2019-02-06T05:05:07.419Z,3.00
2019-02-06T05:06:07.404Z,3.00
2019-02-06T05:07:18.356Z,2.70
2019-02-06T05:08:08.401Z,2.30
2019-02-06T05:09:07.366Z,3.20
2019-02-06T05:10:07.354Z,2.60
2019-02-06T05:11:07.351Z,2.50
2019-02-06T05:12:09.529Z,1.90
2019-02-06T05:13:07.322Z,2.80
2019-02-06T05:14:07.332Z,2.70
2019-02-06T05:15:07.304Z,2.90
2019-02-06T05:16:07.299Z,3.30
2019-02-06T05:17:07.286Z,2.90
2019-02-06T05:18:07.269Z,2.90
2019-02-06T05:19:07.272Z,2.50
2019-02-06T05:20:07.258Z,2.60
2019-02-06T05:21:07.237Z,2.80
2019-02-06T05:22:07.224Z,2.80
2019-02-06T05:23:07.227Z,3.30
2019-02-06T05:24:07.217Z,2.90
2019-02-06T05:25:07.193Z,2.40
2019-02-06T05:26:07.182Z,3.10
2019-02-06T05:27:07.173Z,2.60
2019-02-06T05:28:07.161Z,3.30
2019-02-06T05:29:07.195Z,2.30
2019-02-06T05:30:07.138Z,3.00
2019-02-06T05:31:07.127Z,2.90
2019-02-06T05:32:07.117Z,2.40
2019-02-06T05:33:07.109Z,2.60
2019-02-06T05:34:07.094Z,3.00
2019-02-06T05:35:07.111Z,3.20
2019-02-06T05:36:07.074Z,2.60
2019-02-06T05:37:07.063Z,3.30
2019-02-06T05:38:07.053Z,2.50
2019-02-06T05:39:07.042Z,2.70
2019-02-06T05:40:07.043Z,2.40
2019-02-06T05:41:07.035Z,2.60
2019-02-06T05:42:07.006Z,2.30
2019-02-06T05:43:06.998Z,2.40
2019-02-06T05:44:06.987Z,2.50
2019-02-06T05:45:06.997Z,2.40
2019-02-06T05:46:06.964Z,2.60
2019-02-06T05:47:06.976Z,2.40
2019-02-06T05:48:06.948Z,2.80
2019-02-06T05:49:06.932Z,2.70
2019-02-06T05:50:06.933Z,2.00
2019-02-06T05:51:06.910Z,2.50
2019-02-06T05:52:06.898Z,2.40
2019-02-06T05:53:06.892Z,2.20
2019-02-06T05:54:06.879Z,2.70
2019-02-06T05:55:06.878Z,2.40
2019-02-06T05:56:06.855Z,2.80
2019-02-06T05:57:06.866Z,2.60
2019-02-06T05:58:06.835Z,2.40
2019-02-06T05:59:06.830Z,3.30
2019-02-06T06:00:06.812Z,2.70
2019-02-06T06:01:06.802Z,2.80
2019-02-06T06:02:06.801Z,2.60
2019-02-06T06:03:06.794Z,1.50
2019-02-06T06:04:06.769Z,2.10
2019-02-06T06:05:06.766Z,2.70
2019-02-06T06:06:06.753Z,2.10
2019-02-06T06:07:06.751Z,2.90
2019-02-06T06:08:06.724Z,1.80
2019-02-06T06:09:06.715Z,2.40
2019-02-06T06:10:06.711Z,2.50
2019-02-06T06:11:06.736Z,2.90
2019-02-06T06:12:06.722Z,2.20
2019-02-06T06:13:06.671Z,1.90
2019-02-06T06:14:06.662Z,2.30
2019-02-06T06:15:06.666Z,2.20
2019-02-06T06:16:06.640Z,2.80
2019-02-06T06:17:06.633Z,2.20
2019-02-06T06:18:06.639Z,2.50
2019-02-06T06:19:06.608Z,2.80
2019-02-06T06:20:06.600Z,1.60
2019-02-06T06:21:06.584Z,2.40
2019-02-06T06:22:06.576Z,1.80
2019-02-06T06:23:06.569Z,2.50
2019-02-06T06:24:09.092Z,1.20
2019-02-06T06:25:06.544Z,2.20
2019-02-06T06:26:06.529Z,1.80
2019-02-06T06:27:06.520Z,2.10
2019-02-06T06:28:06.507Z,2.80
2019-02-06T06:29:06.504Z,1.70
2019-02-06T06:30:06.498Z,2.30
2019-02-06T06:31:06.475Z,1.90
2019-02-06T06:32:06.466Z,2.00
2019-02-06T06:33:06.457Z,1.40
2019-02-06T06:34:06.454Z,1.70
2019-02-06T06:35:06.451Z,2.20
2019-02-06T06:36:06.422Z,2.30
2019-02-06T06:37:06.409Z,2.00
2019-02-06T06:38:06.399Z,1.90
2019-02-06T06:39:06.390Z,1.90
2019-02-06T06:40:06.391Z,2.30
2019-02-06T06:41:06.392Z,1.90
2019-02-06T06:42:06.358Z,2.50
2019-02-06T06:43:06.511Z,1.90
2019-02-06T06:44:06.335Z,2.40
2019-02-06T06:45:06.323Z,2.10
2019-02-06T06:46:06.324Z,2.30
2019-02-06T06:47:06.306Z,1.90
2019-02-06T06:48:06.293Z,2.30
2019-02-06T06:49:06.277Z,2.50
2019-02-06T06:50:06.266Z,2.20
2019-02-06T06:51:06.270Z,2.40
2019-02-06T06:52:06.248Z,2.30
2019-02-06T06:53:06.251Z,2.40
2019-02-06T06:54:06.225Z,2.40
2019-02-06T06:55:06.214Z,2.60
2019-02-06T06:56:06.217Z,2.40
2019-02-06T06:57:06.201Z,2.10
2019-02-06T06:58:06.181Z,2.10
2019-02-06T06:59:06.181Z,2.00
2019-02-06T07:02:35.565Z,2.40
2019-02-06T07:03:35.544Z,2.60
2019-02-06T07:04:35.536Z,2.90
2019-02-06T07:05:35.556Z,1.70
2019-02-06T07:06:35.512Z,2.60
2019-02-06T07:07:35.502Z,2.60
2019-02-06T07:08:35.496Z,2.40
2019-02-06T07:09:35.479Z,2.00
2019-02-06T07:10:35.583Z,2.20
2019-02-06T07:11:35.479Z,2.40
2019-02-06T07:12:35.449Z,2.70
2019-02-06T07:13:35.434Z,2.10
2019-02-06T07:14:35.427Z,2.20
2019-02-06T07:15:35.412Z,2.40
2019-02-06T07:16:35.447Z,1.80
2019-02-06T07:17:35.392Z,1.90
2019-02-06T07:18:35.491Z,1.90
2019-02-06T07:19:35.368Z,1.80
2019-02-06T07:20:35.358Z,2.20
2019-02-06T07:21:35.347Z,1.60
2019-02-06T07:22:35.390Z,1.80
2019-02-06T07:23:35.325Z,1.70
2019-02-06T07:24:35.313Z,2.20
2019-02-06T07:25:35.301Z,2.40
2019-02-06T07:26:35.290Z,2.40
2019-02-06T07:27:35.314Z,1.80
2019-02-06T07:28:35.280Z,2.30
2019-02-06T07:29:35.258Z,2.20
2019-02-06T07:30:35.248Z,2.60
2019-02-06T07:31:35.234Z,2.00
2019-02-06T07:32:36.430Z,2.10
2019-02-06T07:33:35.228Z,1.80
2019-02-06T07:34:35.215Z,2.00
2019-02-06T07:35:35.192Z,1.90
2019-02-06T07:36:35.182Z,2.00
2019-02-06T07:37:35.184Z,2.40
2019-02-06T07:38:35.164Z,1.90
2019-02-06T07:39:35.147Z,1.80
2019-02-06T07:40:35.147Z,2.00
2019-02-06T07:41:35.126Z,2.10
2019-02-06T07:42:35.146Z,1.90
2019-02-06T07:43:35.105Z,2.00
2019-02-06T07:44:35.093Z,2.60
2019-02-06T07:45:35.081Z,2.80
2019-02-06T07:46:35.083Z,3.10
2019-02-06T07:47:35.061Z,2.60
2019-02-06T07:48:35.121Z,2.70
2019-02-06T07:49:35.049Z,2.30
2019-02-06T07:50:35.028Z,2.10
2019-02-06T07:51:35.017Z,2.20
2019-02-06T07:52:35.014Z,2.50
2019-02-06T07:53:34.994Z,2.30
2019-02-06T07:54:34.996Z,1.60
2019-02-06T07:55:34.971Z,2.00
2019-02-06T07:56:34.961Z,1.80
2019-02-06T07:57:34.951Z,2.60
2019-02-06T07:58:34.959Z,2.40
2019-02-06T07:59:34.927Z,1.70
2019-02-06T08:00:34.917Z,2.10
2019-02-06T08:01:34.918Z,2.00
2019-02-06T08:02:34.894Z,2.10
2019-02-06T08:03:34.883Z,3.00
2019-02-06T08:04:34.888Z,2.20
2019-02-06T08:05:34.860Z,1.90
2019-02-06T08:06:34.861Z,2.00
2019-02-06T08:07:34.876Z,2.20
2019-02-06T08:08:36.379Z,2.10
2019-02-06T08:09:34.824Z,2.10
2019-02-06T08:10:34.808Z,2.00
2019-02-06T08:11:34.794Z,2.00
2019-02-06T08:12:34.787Z,1.70
2019-02-06T08:13:34.793Z,1.80
2019-02-06T08:14:34.769Z,1.70
2019-02-06T08:15:34.760Z,1.90
2019-02-06T08:16:34.745Z,2.10
2019-02-06T08:17:34.728Z,2.50
2019-02-06T08:18:34.718Z,2.50
2019-02-06T08:19:34.720Z,1.80
2019-02-06T08:20:34.694Z,2.10
2019-02-06T08:21:34.684Z,1.70
2019-02-06T08:22:34.678Z,1.80
2019-02-06T08:23:34.664Z,1.90
2019-02-06T08:24:34.663Z,1.80
2019-02-06T08:25:34.640Z,1.60
2019-02-06T08:26:34.631Z,2.00
2019-02-06T08:27:34.630Z,2.40
2019-02-06T08:28:34.613Z,1.80
2019-02-06T08:29:34.618Z,2.20
2019-02-06T08:30:34.584Z,2.20
2019-02-06T08:31:34.573Z,2.30
2019-02-06T08:32:34.563Z,1.90
2019-02-06T08:33:34.553Z,2.10
2019-02-06T08:34:34.547Z,1.50
2019-02-06T08:35:34.558Z,1.90
2019-02-06T08:36:34.575Z,2.00
2019-02-06T08:37:34.511Z,2.60
2019-02-06T08:38:34.497Z,1.90
2019-02-06T08:39:34.484Z,2.00
2019-02-06T08:40:34.478Z,1.70
2019-02-06T08:41:34.474Z,2.00
2019-02-06T08:42:34.452Z,2.00
2019-02-06T08:43:34.439Z,1.50
2019-02-06T08:44:34.451Z,1.80
2019-02-06T08:45:34.420Z,2.20
2019-02-06T08:46:34.420Z,2.20
2019-02-06T08:47:34.433Z,3.00
2019-02-06T08:48:34.388Z,2.00
2019-02-06T08:49:34.376Z,2.10
2019-02-06T08:50:34.368Z,2.50
2019-02-06T08:51:34.351Z,2.00
2019-02-06T08:52:34.341Z,1.70
2019-02-06T08:53:34.344Z,2.70
2019-02-06T08:54:34.318Z,1.90
2019-02-06T08:55:34.312Z,1.90
2019-02-06T08:56:34.297Z,2.00
2019-02-06T08:57:34.285Z,2.10
2019-02-06T08:58:34.319Z,3.00
2019-02-06T08:59:36.198Z,2.60
2019-02-06T09:00:34.250Z,2.00
2019-02-06T09:01:34.240Z,2.20
2019-02-06T09:02:34.230Z,2.10
2019-02-06T09:03:34.218Z,2.10
2019-02-06T09:04:34.228Z,2.60
2019-02-06T09:05:34.201Z,2.30
2019-02-06T09:06:34.184Z,2.30
2019-02-06T09:07:34.173Z,1.90
2019-02-06T09:08:34.162Z,2.40
2019-02-06T09:09:34.164Z,1.90
2019-02-06T09:10:34.145Z,2.00
2019-02-06T09:11:34.129Z,2.80
2019-02-06T09:12:34.123Z,2.00
2019-02-06T09:13:34.106Z,2.40
2019-02-06T09:14:34.111Z,2.20
2019-02-06T09:15:34.082Z,2.40
2019-02-06T09:16:34.079Z,2.20
2019-02-06T09:17:34.061Z,2.60
2019-02-06T09:18:34.049Z,2.00
2019-02-06T09:19:34.054Z,2.00
2019-02-06T09:20:34.026Z,2.60
2019-02-06T09:21:34.014Z,2.60
2019-02-06T09:22:34.017Z,2.10
2019-02-06T09:23:33.993Z,2.60
2019-02-06T09:24:34.028Z,2.00
2019-02-06T09:25:33.970Z,1.40
2019-02-06T09:26:36.147Z,2.20
2019-02-06T09:27:33.950Z,1.90
2019-02-06T09:28:33.942Z,1.80
2019-02-06T09:29:33.925Z,2.00
2019-02-06T09:30:33.958Z,1.90
2019-02-06T09:31:33.902Z,1.80
2019-02-06T09:32:33.894Z,1.70
2019-02-06T09:33:33.883Z,1.50
2019-02-06T09:34:33.876Z,2.10
2019-02-06T09:35:33.859Z,2.10
2019-02-06T09:36:33.863Z,2.10
2019-02-06T09:37:33.852Z,2.30
2019-02-06T09:38:33.838Z,2.10
2019-02-06T09:39:33.817Z,2.20
2019-02-06T09:40:33.807Z,1.50
2019-02-06T09:41:33.790Z,1.90
2019-02-06T09:42:33.819Z,1.90
2019-02-06T09:43:33.769Z,2.00
2019-02-06T09:44:33.766Z,1.90
2019-02-06T09:45:33.748Z,2.00
2019-02-06T09:46:33.747Z,1.50
2019-02-06T09:47:33.724Z,1.80
2019-02-06T09:48:33.727Z,2.30
2019-02-06T09:49:33.703Z,1.90
2019-02-06T09:50:33.690Z,2.00
2019-02-06T09:51:33.687Z,1.70
2019-02-06T09:52:33.675Z,2.00
2019-02-06T09:53:33.672Z,1.90
2019-02-06T09:54:33.645Z,1.90
2019-02-06T09:55:33.638Z,2.00
2019-02-06T09:56:33.624Z,2.00
2019-02-06T09:57:35.567Z,2.10
2019-02-06T09:58:33.745Z,2.10
2019-02-06T09:59:33.605Z,1.90
2019-02-06T10:00:33.579Z,2.10
2019-02-06T10:01:33.568Z,2.00
2019-02-06T10:02:33.559Z,2.10
2019-02-06T10:03:33.559Z,2.00
2019-02-06T10:04:33.579Z,1.90
2019-02-06T10:05:33.529Z,1.30
2019-02-06T10:06:33.519Z,1.30
2019-02-06T10:07:33.503Z,1.60
2019-02-06T10:08:33.490Z,2.20
2019-02-06T10:09:33.478Z,2.20
2019-02-06T10:10:33.504Z,1.70
2019-02-06T10:11:33.454Z,2.30
2019-02-06T10:12:33.447Z,2.40
2019-02-06T10:13:33.433Z,1.90
2019-02-06T10:14:33.421Z,1.90
2019-02-06T10:15:33.409Z,2.40
2019-02-06T10:16:33.419Z,1.70
2019-02-06T10:17:36.069Z,1.90
2019-02-06T10:18:33.379Z,2.50
2019-02-06T10:19:33.365Z,2.00
2019-02-06T10:20:33.354Z,1.80
2019-02-06T10:21:33.355Z,2.10
2019-02-06T10:22:33.353Z,2.00
2019-02-06T10:23:33.323Z,2.00
2019-02-06T10:24:33.310Z,1.80
2019-02-06T10:25:33.298Z,1.90
2019-02-06T10:26:33.292Z,2.10
2019-02-06T10:27:33.291Z,1.70
2019-02-06T10:28:33.271Z,1.60
2019-02-06T10:29:33.262Z,1.30
2019-02-06T10:30:33.243Z,1.80
2019-02-06T10:31:33.234Z,1.90
2019-02-06T10:32:33.234Z,1.80
2019-02-06T10:33:33.234Z,2.20
2019-02-06T10:34:33.209Z,1.80
2019-02-06T10:35:33.187Z,2.10
2019-02-06T10:36:33.178Z,2.00
2019-02-06T10:37:33.166Z,2.00
2019-02-06T10:38:33.156Z,2.40
2019-02-06T10:39:34.845Z,2.20
2019-02-06T10:40:33.140Z,2.10
2019-02-06T10:41:33.122Z,1.70
2019-02-06T10:42:33.110Z,1.40
2019-02-06T10:43:35.825Z,2.00
2019-02-06T10:44:33.101Z,1.60
2019-02-06T10:45:33.080Z,1.70
2019-02-06T10:46:33.076Z,2.20
2019-02-06T10:47:33.056Z,2.20
2019-02-06T10:48:33.058Z,2.20
2019-02-06T10:49:33.034Z,2.10
2019-02-06T10:50:33.033Z,1.70
2019-02-06T10:51:33.009Z,1.90
2019-02-06T10:52:33.013Z,1.60
2019-02-06T10:53:32.986Z,1.70
2019-02-06T10:54:32.977Z,2.10
2019-02-06T10:55:33.004Z,2.00
2019-02-06T10:56:32.956Z,2.60
2019-02-06T10:57:32.944Z,2.10
2019-02-06T10:58:32.936Z,1.90
2019-02-06T10:59:32.920Z,1.50
2019-02-06T11:00:32.909Z,1.60
2019-02-06T11:01:32.934Z,2.10
2019-02-06T11:02:34.666Z,2.00
2019-02-06T11:03:32.876Z,2.00
2019-02-06T11:04:32.934Z,1.70
2019-02-06T11:05:32.854Z,2.30
2019-02-06T11:06:32.841Z,1.60
2019-02-06T11:07:32.846Z,2.10
2019-02-06T11:08:32.822Z,1.80
2019-02-06T11:09:32.810Z,2.10
2019-02-06T11:10:32.803Z,2.10
2019-02-06T11:11:32.804Z,1.40
2019-02-06T11:12:32.777Z,2.00
2019-02-06T11:13:32.767Z,2.00
2019-02-06T11:14:32.760Z,1.80
2019-02-06T11:15:32.744Z,2.10
2019-02-06T11:16:32.759Z,2.30
2019-02-06T11:17:32.732Z,2.30
2019-02-06T11:18:32.710Z,2.50
2019-02-06T11:19:32.701Z,1.80
2019-02-06T11:20:32.694Z,2.10
2019-02-06T11:21:32.694Z,1.80
2019-02-06T11:22:32.669Z,2.30
2019-02-06T11:23:32.665Z,1.90
2019-02-06T11:24:32.650Z,2.60
2019-02-06T11:25:32.638Z,2.20
2019-02-06T11:26:32.639Z,1.70
2019-02-06T11:27:32.610Z,2.30
2019-02-06T11:28:32.600Z,2.00
2019-02-06T11:29:32.590Z,1.80
2019-02-06T11:30:32.578Z,2.10
2019-02-06T11:31:32.577Z,1.70
2019-02-06T11:32:32.553Z,2.30
2019-02-06T11:33:32.545Z,1.70
2019-02-06T11:34:32.531Z,1.70
2019-02-06T11:35:32.525Z,2.00
2019-02-06T11:36:32.521Z,1.60
2019-02-06T11:37:32.497Z,1.40
2019-02-06T11:38:32.489Z,1.60
2019-02-06T11:39:32.490Z,1.70
2019-02-06T11:40:32.464Z,1.60
2019-02-06T11:41:32.498Z,1.20
2019-02-06T11:42:32.441Z,1.80
2019-02-06T11:43:32.430Z,1.50
2019-02-06T11:44:32.426Z,1.60
2019-02-06T11:45:32.406Z,1.60
2019-02-06T11:46:32.397Z,1.60
2019-02-06T11:47:32.414Z,1.80
2019-02-06T11:48:32.375Z,1.40
2019-02-06T11:49:32.362Z,1.60
2019-02-06T11:50:32.353Z,1.50
2019-02-06T11:51:32.338Z,2.20
2019-02-06T11:52:32.344Z,1.60
2019-02-06T11:53:32.325Z,1.40
2019-02-06T11:54:32.330Z,1.40
2019-02-06T11:55:32.357Z,1.40
2019-02-06T11:56:32.283Z,1.60
2019-02-06T11:57:32.287Z,2.00
2019-02-06T11:58:32.262Z,1.60
2019-02-06T11:59:32.252Z,1.40
2019-02-06T12:00:32.252Z,1.70
2019-02-06T12:01:32.296Z,1.10
2019-02-06T12:02:37.350Z,1.50
2019-02-06T12:03:33.206Z,1.40
2019-02-06T12:04:32.195Z,1.80
2019-02-06T12:05:32.183Z,1.30
2019-02-06T12:06:32.191Z,1.50
2019-02-06T12:07:32.178Z,1.70
2019-02-06T12:08:32.151Z,1.40
2019-02-06T12:09:32.151Z,1.60
2019-02-06T12:10:32.127Z,1.30
2019-02-06T12:11:32.114Z,1.30
2019-02-06T12:12:32.113Z,1.40
2019-02-06T12:13:32.117Z,1.40
2019-02-06T12:14:32.084Z,1.40
2019-02-06T12:15:32.071Z,1.20
2019-02-06T12:16:32.123Z,1.30
2019-02-06T12:17:32.049Z,1.40
2019-02-06T12:18:32.046Z,2.00
2019-02-06T12:19:32.138Z,1.10
2019-02-06T12:20:32.016Z,1.40
2019-02-06T12:21:32.004Z,1.50
2019-02-06T12:22:31.994Z,1.40
2019-02-06T12:23:32.614Z,1.20
2019-02-06T12:24:32.016Z,1.40
2019-02-06T12:25:34.381Z,1.40
2019-02-06T12:26:31.949Z,1.50
2019-02-06T12:27:31.937Z,1.20
2019-02-06T12:28:31.927Z,2.00
2019-02-06T12:29:31.915Z,1.50
2019-02-06T12:30:31.923Z,1.60
2019-02-06T12:31:31.900Z,1.50
2019-02-06T12:32:31.898Z,1.30
2019-02-06T12:33:31.871Z,1.30
2019-02-06T12:34:31.908Z,1.50
2019-02-06T12:35:31.848Z,2.00
2019-02-06T12:36:31.846Z,1.50
2019-02-06T12:37:31.831Z,1.10
2019-02-06T12:38:31.814Z,1.60
2019-02-06T12:39:31.804Z,1.90
2019-02-06T12:40:31.807Z,1.40
2019-02-06T12:41:31.827Z,1.20
2019-02-06T12:42:31.781Z,1.30
2019-02-06T12:43:31.758Z,1.30
2019-02-06T12:44:31.747Z,1.80
2019-02-06T12:45:31.739Z,1.60
2019-02-06T12:46:31.726Z,1.60
2019-02-06T12:47:31.726Z,1.10
2019-02-06T12:48:31.714Z,1.80
2019-02-06T12:49:31.695Z,1.50
2019-02-06T12:50:31.710Z,1.50
2019-02-06T12:51:31.671Z,1.30
2019-02-06T12:52:31.661Z,1.20
2019-02-06T12:53:31.648Z,1.50
2019-02-06T12:54:31.645Z,1.50
2019-02-06T12:55:31.627Z,1.00
2019-02-06T12:56:31.645Z,1.50
2019-02-06T12:57:36.944Z,1.80
2019-02-06T12:58:32.590Z,1.40
2019-02-06T12:59:31.581Z,1.80
2019-02-06T13:00:31.580Z,1.30
2019-02-06T13:01:31.559Z,1.30
2019-02-06T13:02:31.559Z,1.80
2019-02-06T13:03:31.537Z,1.50
2019-02-06T13:04:31.525Z,1.40
2019-02-06T13:05:31.519Z,2.00
2019-02-06T13:06:31.512Z,1.70
2019-02-06T13:07:31.511Z,1.40
2019-02-06T13:08:31.485Z,1.60
2019-02-06T13:09:31.470Z,1.80
2019-02-06T13:10:34.351Z,2.00
2019-02-06T13:11:31.451Z,1.70
2019-02-06T13:12:31.453Z,1.70
2019-02-06T13:13:31.435Z,1.80
2019-02-06T13:14:31.412Z,1.60
2019-02-06T13:15:31.406Z,2.00
2019-02-06T13:16:31.390Z,1.80
2019-02-06T13:17:31.380Z,1.30
2019-02-06T13:18:31.396Z,1.20
2019-02-06T13:19:31.359Z,1.60
2019-02-06T13:20:31.380Z,1.80